Selected Arizona METAR Reports


Metar stations are listed by distance from this station - near to far. The 'official' reporting station for the Greater Phoenix area is KPHX - Phoenix/Sky Harbor.

KDVT - Phoenix/Deer Valley, Arizona, USA
Distance from station: NW 4mi, 7km
Updated: Wed 13 Dec 2017 2253 MST
Clear
Clear
 Wind from calm
Wind: Calm
Temperature: 48°F , 9°C
Dew Point: 7°F , -14°C
Humidity: 18%
Barometer: 29.92 inHg , 1013.2 hPa
Clouds: Clear
Visibility: 10 miles , 16 km
2017/12/14 05:53 KDVT 140553Z 00000KT 10SM CLR 09/M14 A2992 RMK AO2 SLP122 T00941144 10217 20094 51000
KSDL - Scottsdale, Arizona, USA
Distance from station: ESE 6mi, 9km
Updated: Wed 13 Dec 2017 2253 MST
Clear
Clear
 Wind from NW
Wind: NW 3 mph , 6 km/h
Temperature: 52°F , 11°C
Dew Point: 19°F , -7°C
Humidity: 28%
Barometer: 29.94 inHg , 1013.9 hPa
Clouds: Clear
Visibility: 10 miles , 16 km
2017/12/14 05:53 KSDL 140553Z AUTO 32003KT 10SM CLR 11/M07 A2994 RMK AO2 SLP127 T01061072 10228 20106 50002
 
KPHX - Phoenix/Sky Harbor, Arizona, USA
Distance from station: S 15mi, 24km
Updated: Wed 13 Dec 2017 2251 MST
Clear
Clear
 Wind from ESE
Wind: ESE 5 mph , 7 km/h
Temperature: 55°F , 13°C
Dew Point: 23°F , -5°C
Humidity: 28%
Barometer: 29.91 inHg , 1012.9 hPa
Clouds: Clear
Visibility: 10 miles , 16 km
2017/12/14 05:51 KPHX 140551Z 11004KT 10SM CLR 13/M05 A2991 RMK AO2 SLP118 T01331050 10233 20128 58001 $
KGEU - Glendale, Arizona, USA
Distance from station: WSW 19mi, 30km
Updated: Wed 13 Dec 2017 1655 MST
NOT Current
Clear
Clear
 Wind from calm
Wind: Calm
Temperature: 73°F , 23°C
Dew Point: 10°F , -12°C
Humidity: 9%
Barometer: 29.93 inHg , 1013.5 hPa
Clouds: Clear
Visibility: 10 miles , 16 km
2017/12/13 23:55 KGEU 132355Z 00000KT 10SM SKC 23/M12 A2993
 
KFFZ - Mesa/Falcon Field, Arizona, USA
Distance from station: SE 21mi, 33km
Updated: Wed 13 Dec 2017 1947 MST
NOT Current
Clear
Clear
 Wind from calm
Wind: Calm
Temperature: 63°F , 17°C
Dew Point: 16°F , -9°C
Humidity: 16%
Barometer: 29.93 inHg , 1013.5 hPa
Clouds: Clear
Visibility: 40 miles , 64 km
2017/12/14 02:47 KFFZ 140247Z 00000KT 40SM SKC 17/M09 A2993
KLUF - Luke AFB/Glendale, Arizona, USA
Distance from station: WSW 23mi, 36km
Updated: Wed 13 Dec 2017 2258 MST
Clear
Clear
 Wind from NW
Wind: NW 3 mph , 6 km/h
Temperature: 46°F , 8°C
Dew Point: 25°F , -4°C
Humidity: 43%
Barometer: 29.92 inHg , 1013.2 hPa
Clouds: Clear
Visibility: 10 miles , 16 km
2017/12/14 05:58 KLUF 140558Z AUTO 32003KT 10SM CLR 08/M04 A2992 RMK AO2 SLP129 T00781043 10221 20078 50005 VISNO RWY21 $
 
KGYR - Goodyear Municipal, Arizona, USA
Distance from station: SW 26mi, 42km
Updated: Wed 13 Dec 2017 2047 MST
NOT Current
Clear
Clear
 Wind from WSW
Wind: WSW 5 mph , 7 km/h
Temperature: 55°F , 13°C
Dew Point: 19°F , -7°C
Humidity: 24%
Barometer: 29.92 inHg , 1013.2 hPa
Clouds: Clear
Visibility: 10 miles , 16 km
2017/12/14 03:47 KGYR 140347Z 24004KT 10SM SKC 13/M07 A2992 RMK LAST
KIWA - Chandler/Mesa, Arizona, USA
Distance from station: SE 32mi, 51km
Updated: Wed 13 Dec 2017 2247 MST
Clear
Clear
 Wind from ESE
Wind: ESE 9 mph , 15 km/h
Temperature: 46°F , 8°C
Wind Chill: 41°F , 5°C
Dew Point: 7°F , -14°C
Humidity: 20%
Barometer: 29.93 inHg , 1013.5 hPa
Clouds: Clear
Visibility: 20 miles , 32 km
2017/12/14 05:47 KIWA 140547Z 11008KT 20SM SKC 08/M14 A2993
 
KBXK - Buckeye, Arizona, USA
Distance from station: WSW 42mi, 68km
Updated: Wed 13 Dec 2017 2255 MST
Few Clouds
Few Clouds
 Wind from N
Wind: N 6 mph , 9 km/h
Temperature: 48°F , 9°C
Wind Chill: 45°F , 7°C
Dew Point: -0°F , -18°C
Humidity: 13%
Barometer: 29.93 inHg , 1013.5 hPa
Clouds: Few Clouds
Visibility: 10 miles , 16 km
Cloud details: Few Clouds 12000 ft
2017/12/14 05:55 KBXK 140555Z AUTO 36005KT 10SM FEW120 09/M18 A2993 RMK AO1
KCGZ - Casa Grande, Arizona, USA
Distance from station: SSE 50mi, 81km
Updated: Sat 16 Sep 2017 2056 MST
NOT Current
Clear
Clear
 Wind from W
Wind: W 8 mph , 13 km/h
Temperature: 84°F , 29°C
Dew Point: 46°F , 8°C
Humidity: 27%
Barometer: 29.83 inHg , 1010.2 hPa
Clouds: Clear
Visibility: 10 miles , 16 km
2017/09/17 03:56 KCGZ 170356Z AUTO 27007KT 10SM CLR 29/08 A2983 RMK AO2 SLP086 T02940083 PNO $
 
KPAN - Payson, Arizona, USA
Distance from station: NE 57mi, 91km
Updated: Wed 13 Dec 2017 2315 MST
Clear
Clear
 Wind from calm
Wind: Calm
Temperature: 39°F , 4°C
Dew Point: -2°F , -19°C
Humidity: 17%
Barometer: 30.05 inHg , 1017.6 hPa
Clouds: Clear
Visibility: 10 miles , 16 km
2017/12/14 06:15 KPAN 140615Z AUTO 00000KT 10SM CLR 04/M19 A3005 RMK AO2
KGBN - Gila Bend (aaf), Arizona, USA
Distance from station: SW 68mi, 109km
Updated: Thu 20 Jul 2017 0757 MST
NOT Current
Partly cloudy
Partly cloudy
 Wind from calm
Wind: Calm
Temperature: 86°F , 30°C
Heat Index: 89°F , 32°C
Dew Point: 68°F , 20°C
Humidity: 55%
Barometer: 29.97 inHg , 1014.9 hPa
Clouds: Partly cloudy
Visibility: 10 miles , 16 km
Cloud details: Few Clouds 10000 ft
Partly cloudy 15000 ft
2017/07/20 14:57 KGBN 201457Z 00000KT 10SM FEW100 SCT150 30/20 A2997 RMK A02 NO SLP
 
KPRC - Prescott, Arizona, USA
Distance from station: NNW 73mi, 118km
Updated: Wed 13 Dec 2017 2253 MST
Clear
Clear
 Wind from S
Wind: S 5 mph , 7 km/h
Temperature: 34°F , 1°C
Wind Chill: 29°F , -2°C
Dew Point: 3°F , -16°C
Humidity: 27%
Barometer: 30.05 inHg , 1017.6 hPa
Clouds: Clear
Visibility: 10 miles , 16 km
2017/12/14 05:53 KPRC 140553Z AUTO 18004KT 10SM CLR 01/M16 A3005 RMK AO2 SLP154 T00061156 10161 20000 53003
KSEZ - Sedona, Arizona, USA
Distance from station: N 84mi, 135km
Updated: Wed 13 Dec 2017 2315 MST
Clear
Clear
 Wind from calm
Wind: Calm
Temperature: 50°F , 10°C
Dew Point: 3°F , -16°C
Humidity: 14%
Barometer: 30.04 inHg , 1017.3 hPa
Clouds: Clear
Visibility: 10 miles , 16 km
2017/12/14 06:15 KSEZ 140615Z AUTO 00000KT 10SM CLR 10/M16 A3004 RMK AO2
 
KFLG - Flagstaff, Arizona, USA
Distance from station: N 105mi, 168km
Updated: Wed 13 Dec 2017 2257 MST
Clear
Clear
 Wind from calm
Wind: Calm
Temperature: 28°F , -2°C
Dew Point: -2°F , -19°C
Humidity: 26%
Barometer: 30.08 inHg , 1018.6 hPa
Clouds: Clear
Visibility: 10 miles , 16 km
2017/12/14 05:57 KFLG 140557Z AUTO 00000KT 10SM CLR M02/M19 A3008 RMK AO2 SLP150 T10171194 10094 21044 56002
KRYN - Tucson/Ryan Field, Arizona, USA
Distance from station: SSE 114mi, 184km
Updated: Wed 13 Dec 2017 1945 MST
NOT Current
Clear
Clear
 Wind from SW
Wind: SW 6 mph , 9 km/h
Temperature: 57°F , 14°C
Dew Point: 21°F , -6°C
Humidity: 25%
Barometer: 29.99 inHg , 1015.6 hPa
Clouds: Clear
Visibility: 10 miles , 16 km
2017/12/14 02:45 KRYN 140245Z 22005KT 10SM CLR 14/M06 A2999 RMK LAST
 
KCMR - Williams Clark, Arizona, USA
Distance from station: N 115mi, 185km
Updated: Wed 13 Dec 2017 2315 MST
Clear
Clear
 Wind from S
Wind: S 8 mph , 13 km/h
Temperature: 25°F , -4°C
Wind Chill: 16°F , -9°C
Dew Point: -2°F , -19°C
Humidity: 30%
Barometer: 30.07 inHg , 1018.3 hPa
Clouds: Clear
Visibility: 10 miles , 16 km
2017/12/14 06:15 KCMR 140615Z AUTO 17007KT 10SM CLR M04/M19 A3007 RMK AO2
KINW - Winslow, Arizona, USA
Distance from station: NE 121mi, 194km
Updated: Wed 13 Dec 2017 2256 MST
Clear
Clear
 Wind from S
Wind: S 6 mph , 9 km/h
Temperature: 23°F , -5°C
Wind Chill: 16°F , -9°C
Dew Point: -2°F , -19°C
Humidity: 33%
Barometer: 30.04 inHg , 1017.3 hPa
Clouds: Clear
Visibility: 10 miles , 16 km
2017/12/14 05:56 KINW 140556Z AUTO 17005KT 10SM CLR M05/M19 A3004 RMK AO2 SLP188 T10501194 10111 21061 53003
 
KTUS - Tucson, Arizona, USA
Distance from station: SSE 121mi, 195km
Updated: Wed 13 Dec 2017 2253 MST
Clear
Clear
 Wind from SSE
Wind: SSE 7 mph , 11 km/h
Temperature: 52°F , 11°C
Dew Point: 21°F , -6°C
Humidity: 30%
Barometer: 29.99 inHg , 1015.6 hPa
Clouds: Clear
Visibility: 10 miles , 16 km
2017/12/14 05:53 KTUS 140553Z 16006KT 10SM CLR 11/M06 A2999 RMK AO2 SLP132 T01061061 10233 20106 50001
KDMA - Davis AFB/Tucson, Arizona, USA
Distance from station: SE 122mi, 196km
Updated: Wed 13 Dec 2017 2258 MST
Clear
Clear
 Wind from SSE
Wind: SSE 8 mph , 13 km/h
Temperature: 48°F , 9°C
Wind Chill: 44°F , 7°C
Dew Point: 21°F , -6°C
Humidity: 34%
Barometer: 29.97 inHg , 1014.9 hPa
Clouds: Clear
Visibility: 10 miles , 16 km
2017/12/14 05:58 KDMA 140558Z AUTO 15007KT 10SM CLR 09/M06 A2997 RMK AO2 SLP128 T00921059 10221 20092 50000 $
 
KSOW - Show Low Municipal, Arizona, USA
Distance from station: ENE 123mi, 198km
Updated: Wed 13 Dec 2017 2315 MST
Clear
Clear
 Wind from S
Wind: S 12 mph , 19 km/h
Temperature: 37°F , 3°C
Wind Chill: 29°F , -2°C
Dew Point: 3°F , -16°C
Humidity: 23%
Barometer: 30.07 inHg , 1018.3 hPa
Clouds: Clear
Visibility: 10 miles , 16 km
2017/12/14 06:15 KSOW 140615Z AUTO 17010KT 10SM CLR 03/M16 A3007 RMK AO2
KSAD - Safford, Arizona, USA
Distance from station: ESE 148mi, 238km
Updated: Wed 13 Dec 2017 2251 MST
Clear
Clear
 Wind from NNW
Wind: NNW 5 mph , 7 km/h
Temperature: 39°F , 4°C
Wind Chill: 35°F , 2°C
Dew Point: 12°F , -11°C
Humidity: 33%
Barometer: 29.98 inHg , 1015.2 hPa
Clouds: Clear
Visibility: 10 miles , 16 km
2017/12/14 05:51 KSAD 140551Z AUTO 33004KT 10SM CLR 04/M11 A2998 RMK AO2 SLP138 T00391111 10178 20039 55000